Thorntown, IN

10:10 AM EDT on August 27, 2016 (GMT -0400)
Hawks Haven | | Change Station

Elev 935 ft 40.07 °N, 86.49 °W | Updated 2 seconds ago

Overcast
Overcast
73.8 °F
Feels Like 71 °F
N
4.7
Wind Variable Wind from West
Gusts 5.8 mph

Today
High -- | Low -- °F
--% Chance of Precip.
Yesterday
High -- | Low -- °F
Precip. -- in
Pressure 30.14 in
Visibility 10.0 miles
Clouds Scattered Clouds 6000 ft
Mostly Cloudy 6500 ft
Overcast 8500 ft
Heat Index 71 °F
Dew Point 71 °F
Humidity 92%
Rainfall 0.00 in
Snow Depth Not available.
7:09 AM 8:25 PM
Waning Crescent, 24% visible
METAR KTYQ 271355Z AUTO 27005KT 10SM VCTS SCT060 BKN065 OVC085 23/22 A3014 RMK AO2 LTG DSNT S THRU N T02330218
Pressure 30.14 in
Visibility 10.0 miles
Clouds Scattered Clouds 6000 ft
Mostly Cloudy 6500 ft
Overcast 8500 ft
Heat Index 71 °F
Dew Point 71 °F
Humidity 92%
Rainfall 0.00 in
Snow Depth Not available.
7:09 AM 8:25 PM
Waning Crescent, 24% visible
METAR KTYQ 271355Z AUTO 27005KT 10SM VCTS SCT060 BKN065 OVC085 23/22 A3014 RMK AO2 LTG DSNT S THRU N T02330218

10-Day Weather Forecast

Almanac

Astronomy

Aug. 27, 2016 Rise Set
Actual Time
Civil Twilight
Nautical Twilight
Astronomical Twilight
Moon
Length of Visible Light
Length of Day
Tomorrow will be .
, % of the Moon is Illuminated

Today's Extremes

State Highs State Lows

Community

WunderPhotos

Upload Photos

1,935,340 photos uploaded!

WunderBlog® & News

Nearby

Air Quality

  Air Quality AQ Index Pollutant
Not available.

Snow Depth

Station Depth Elevation

Earthquake Activity

City Distance Mag. Time & Date
Minimum magnitude displayed is 2.5.

Coastal Water Temperatures

Place Temperature

Stations

Nearby Weather Stations

Station Location Temp. Windchill Dew Point Humidity Wind Precip. Elev Updated Type
                   

Watches & Warnings

There are currently no watches in effect.